Time;durP1;ratioP1;P1;durP2;ratioP2;P2;SDS_P1;SDS_P2;PMS_P1;PMS_P2;Temp;Humidity;BMP_temperature;BMP_pressure;BME280_temperature;BME280_humidity;BME280_pressure;Samples;Min_cycle;Max_cycle;Signal;HPM_P1;HPM_P2
2022/01/14 00:00:04;;;;;;;30.08;19.38;;;;;;;-1.69;100.00;103016.47;839442;23;781;-51
2022/01/14 00:00:28;;;;;;;29.38;18.70;;;;;;;-1.69;100.00;103016.47;838090;23;4211;-50
2022/01/14 00:00:48;;;;;;;28.67;18.60;;;;;;;-1.73;100.00;103018.78;840012;23;841;-53
2022/01/14 00:01:09;;;;;;;30.08;18.50;;;;;;;-1.73;100.00;103017.88;839545;23;888;-53
2022/01/14 00:01:29;;;;;;;29.10;18.13;;;;;;;-1.73;100.00;103013.66;839480;23;892;-54
2022/01/14 00:01:50;;;;;;;29.23;18.88;;;;;;;-1.69;100.00;103019.03;840077;23;766;-52
2022/01/14 00:02:10;;;;;;;28.35;18.85;;;;;;;-1.68;100.00;103020.84;840013;23;796;-52
2022/01/14 00:02:31;;;;;;;27.30;17.97;;;;;;;-1.65;100.00;103018.53;839793;23;951;-51
2022/01/14 00:02:51;;;;;;;28.63;17.92;;;;;;;-1.63;100.00;103020.47;838794;23;1348;-55
2022/01/14 00:03:12;;;;;;;27.13;18.43;;;;;;;-1.59;100.00;103008.78;840015;23;925;-51
2022/01/14 00:03:32;;;;;;;29.20;18.88;;;;;;;-1.59;100.00;103007.13;837536;23;4558;-53
2022/01/14 00:03:53;;;;;;;27.20;18.10;;;;;;;-1.55;100.00;103013.41;837458;23;984;-55
2022/01/14 00:04:14;;;;;;;27.25;17.80;;;;;;;-1.56;100.00;103011.59;838373;23;944;-52
2022/01/14 00:04:35;;;;;;;30.35;18.30;;;;;;;-1.58;100.00;103010.56;839124;23;970;-52
2022/01/14 00:04:56;;;;;;;28.63;17.75;;;;;;;-1.59;100.00;103007.13;838651;23;824;-52
2022/01/14 00:05:16;;;;;;;28.83;17.93;;;;;;;-1.61;100.00;103012.88;840170;23;788;-53
2022/01/14 00:05:37;;;;;;;28.77;17.85;;;;;;;-1.63;100.00;103012.75;839024;23;768;-54
2022/01/14 00:05:57;;;;;;;27.03;17.60;;;;;;;-1.62;100.00;103006.88;838856;23;785;-53
2022/01/14 00:06:17;;;;;;;28.33;17.90;;;;;;;-1.63;100.00;103005.06;839789;23;840;-52
2022/01/14 00:06:38;;;;;;;28.27;17.30;;;;;;;-1.65;100.00;103003.13;837465;23;4356;-52
2022/01/14 00:06:59;;;;;;;28.13;17.55;;;;;;;-1.65;100.00;103010.84;839846;23;856;-52
2022/01/14 00:07:20;;;;;;;27.55;17.52;;;;;;;-1.63;100.00;103004.19;840039;23;871;-54
2022/01/14 00:07:40;;;;;;;27.15;17.48;;;;;;;-1.64;100.00;103010.97;835008;23;968;-51
2022/01/14 00:08:01;;;;;;;27.60;18.10;;;;;;;-1.65;100.00;103000.56;835853;23;900;-52
2022/01/14 00:08:21;;;;;;;27.55;17.70;;;;;;;-1.66;100.00;102999.69;835979;23;790;-56
2022/01/14 00:08:41;;;;;;;28.23;18.13;;;;;;;-1.64;100.00;103002.38;834058;23;822;-52
2022/01/14 00:09:07;;;;;;;29.05;18.13;;;;;;;-1.67;100.00;103003.00;836240;23;1060;-53
2022/01/14 00:09:27;;;;;;;28.23;17.60;;;;;;;-1.67;100.00;103009.81;836025;23;4329;-51
2022/01/14 00:09:48;;;;;;;29.50;18.27;;;;;;;-1.68;100.00;103006.34;839241;23;887;-52
2022/01/14 00:10:09;;;;;;;27.73;18.03;;;;;;;-1.68;100.00;103005.47;840010;23;864;-51
2022/01/14 00:10:31;;;;;;;28.80;17.58;;;;;;;-1.68;100.00;103005.47;839975;23;943;-53
2022/01/14 00:10:52;;;;;;;27.77;17.85;;;;;;;-1.61;100.00;103000.06;840223;23;871;-52
2022/01/14 00:11:17;;;;;;;27.63;18.15;;;;;;;-1.53;100.00;103000.69;840060;23;729;-51
2022/01/14 00:11:46;;;;;;;27.58;17.77;;;;;;;-1.55;100.00;102990.31;839396;23;911;-51
2022/01/14 00:12:14;;;;;;;28.00;17.70;;;;;;;-1.55;100.00;102998.91;839902;23;968;-53
2022/01/14 00:12:40;;;;;;;28.38;17.90;;;;;;;-1.55;100.00;103010.84;833710;23;4366;-51
2022/01/14 00:13:09;;;;;;;28.45;17.60;;;;;;;-1.59;100.00;102998.53;836108;23;1910;-52
2022/01/14 00:14:42;;;;;;;28.17;17.98;;;;;;;-1.59;100.00;103001.09;838064;23;804;-52
2022/01/14 00:15:23;;;;;;;24.83;17.00;;;;;;;-1.57;100.00;102995.28;840163;23;899;-52
2022/01/14 00:15:43;;;;;;;27.90;17.00;;;;;;;-1.57;100.00;102992.72;838035;23;4991;-51
2022/01/14 00:16:04;;;;;;;27.33;17.27;;;;;;;-1.62;100.00;102991.47;833133;23;856;-51
2022/01/14 00:16:25;;;;;;;28.45;18.13;;;;;;;-1.63;100.00;102993.91;835856;23;1006;-53
2022/01/14 00:16:46;;;;;;;27.13;17.83;;;;;;;-1.66;100.00;103009.94;835974;23;880;-53
2022/01/14 00:17:11;;;;;;;26.00;17.45;;;;;;;-1.67;100.00;102997.00;836171;23;895;-53
2022/01/14 00:17:31;;;;;;;28.02;17.45;;;;;;;-1.70;100.00;102992.50;835685;23;825;-56
2022/01/14 00:17:53;;;;;;;26.63;17.97;;;;;;;-1.74;100.00;103000.72;837198;23;915;-50
2022/01/14 00:18:14;;;;;;;29.45;18.70;;;;;;;-1.78;100.00;103004.69;839891;23;895;-52
2022/01/14 00:18:34;;;;;;;30.57;18.73;;;;;;;-1.78;100.00;103004.69;838346;23;4275;-51
2022/01/14 00:18:54;;;;;;;31.03;18.30;;;;;;;-1.78;100.00;102999.56;839935;23;984;-54
2022/01/14 00:19:16;;;;;;;29.30;18.07;;;;;;;-1.75;100.00;102993.78;840507;23;872;-53
2022/01/14 00:19:37;;;;;;;29.70;18.15;;;;;;;-1.77;100.00;103001.34;839054;23;729;-51
2022/01/14 00:19:58;;;;;;;30.38;18.77;;;;;;;-1.76;100.00;103002.25;840197;23;797;-52
2022/01/14 00:20:20;;;;;;;27.60;17.92;;;;;;;-1.76;100.00;103005.72;839310;23;944;-51
2022/01/14 00:20:40;;;;;;;27.10;18.40;;;;;;;-1.76;100.00;102994.56;839476;23;899;-52
2022/01/14 00:21:01;;;;;;;29.23;19.05;;;;;;;-1.76;100.00;102995.47;839953;23;769;-51
2022/01/14 00:21:22;;;;;;;29.27;18.75;;;;;;;-1.77;100.00;102995.34;838936;23;4203;-54
2022/01/14 00:21:43;;;;;;;28.43;18.93;;;;;;;-1.80;100.00;102997.63;839634;23;687;-51
2022/01/14 00:22:10;;;;;;;27.90;18.45;;;;;;;-1.80;100.00;102989.94;839119;23;803;-52
2022/01/14 00:22:30;;;;;;;31.77;18.75;;;;;;;-1.83;100.00;102987.13;839517;23;848;-51
2022/01/14 00:22:51;;;;;;;29.90;18.15;;;;;;;-1.82;100.00;102988.94;840026;23;908;-51
2022/01/14 00:23:11;;;;;;;30.35;18.52;;;;;;;-1.83;100.00;102990.56;839723;23;754;-52
2022/01/14 00:23:39;;;;;;;30.17;18.87;;;;;;;-1.83;100.00;102990.56;839735;23;857;-52
2022/01/14 00:24:23;;;;;;;28.95;18.35;;;;;;;-1.82;100.00;102989.81;839731;23;1050;-52
2022/01/14 00:31:58;;;;;;;25.27;17.38;;;;;;;-1.78;100.00;102985.84;839558;23;807;-53
2022/01/14 00:32:28;;;;;;;27.30;17.92;;;;;;;-1.81;100.00;102994.19;838454;23;1059;-53
2022/01/14 00:33:21;;;;;;;27.05;18.02;;;;;;;-1.88;100.00;102990.19;838800;23;4277;-53
2022/01/14 00:33:42;;;;;;;26.98;18.45;;;;;;;-1.89;100.00;102993.53;835837;23;1146;-52
2022/01/14 00:34:03;;;;;;;27.63;18.40;;;;;;;-1.88;100.00;102991.88;835914;23;863;-53
2022/01/14 00:34:23;;;;;;;27.77;17.30;;;;;;;-1.86;100.00;102981.75;835670;23;946;-54
2022/01/14 00:34:43;;;;;;;27.55;17.48;;;;;;;-1.83;100.00;102993.13;835012;23;825;-51
2022/01/14 00:35:04;;;;;;;28.83;18.00;;;;;;;-1.81;100.00;102990.72;834318;23;848;-52
2022/01/14 00:35:25;;;;;;;29.38;17.80;;;;;;;-1.79;100.00;102992.63;835875;23;871;-52
2022/01/14 00:35:46;;;;;;;27.92;17.35;;;;;;;-1.79;100.00;102986.59;839278;23;855;-54
2022/01/14 00:36:06;;;;;;;26.52;16.73;;;;;;;-1.78;100.00;102989.31;839684;23;825;-50
2022/01/14 00:36:26;;;;;;;26.20;17.40;;;;;;;-1.77;100.00;102990.22;833001;23;4214;-52
2022/01/14 00:36:47;;;;;;;27.63;17.43;;;;;;;-1.79;100.00;102990.06;834484;23;832;-51
2022/01/14 00:37:07;;;;;;;29.00;17.85;;;;;;;-1.79;100.00;102987.50;833820;23;821;-54
2022/01/14 00:37:28;;;;;;;26.60;17.50;;;;;;;-1.80;100.00;102984.81;835453;23;887;-52
2022/01/14 00:37:48;;;;;;;25.98;17.17;;;;;;;-1.79;100.00;102986.59;833789;23;1213;-54
2022/01/14 00:38:10;;;;;;;30.83;18.70;;;;;;;-1.79;100.00;102987.50;835477;23;785;-54
2022/01/14 00:38:31;;;;;;;27.67;17.58;;;;;;;-1.79;100.00;102981.47;839313;23;919;-51
2022/01/14 00:38:51;;;;;;;28.80;17.97;;;;;;;-1.79;100.00;102986.59;839433;23;555;-52
2022/01/14 00:39:13;;;;;;;28.70;18.20;;;;;;;-1.82;100.00;102986.38;835240;23;789;-52
2022/01/14 00:39:34;;;;;;;29.70;18.15;;;;;;;-1.84;100.00;102985.31;834137;23;4392;-51
2022/01/14 00:39:54;;;;;;;28.90;18.48;;;;;;;-1.90;100.00;102983.16;835821;23;916;-51
2022/01/14 00:40:14;;;;;;;28.73;18.43;;;;;;;-1.94;100.00;102983.66;835720;23;884;-51
2022/01/14 00:40:35;;;;;;;29.47;18.47;;;;;;;-1.90;100.00;102999.44;834955;23;907;-54
2022/01/14 00:40:55;;;;;;;27.23;17.60;;;;;;;-1.81;100.00;102986.50;835232;23;816;-51
2022/01/14 00:41:16;;;;;;;26.87;17.63;;;;;;;-1.77;100.00;102980.84;837497;23;1505;-59
2022/01/14 00:41:38;;;;;;;26.23;17.33;;;;;;;-1.71;100.00;102976.22;839128;23;934;-52
2022/01/14 00:41:58;;;;;;;27.15;17.75;;;;;;;-1.71;100.00;102978.78;839740;23;807;-53
2022/01/14 00:42:19;;;;;;;27.00;17.35;;;;;;;-1.67;100.00;102981.63;838991;23;765;-53
2022/01/14 00:42:39;;;;;;;28.37;17.80;;;;;;;-1.66;100.00;102978.25;837452;23;4286;-53
2022/01/14 00:43:00;;;;;;;27.25;17.40;;;;;;;-1.67;100.00;102984.19;838785;23;770;-51
2022/01/14 00:43:20;;;;;;;26.42;17.10;;;;;;;-1.69;100.00;102985.69;834853;23;923;-53
2022/01/14 00:43:42;;;;;;;26.80;17.40;;;;;;;-1.69;100.00;102988.28;835098;23;865;-50
2022/01/14 00:44:10;;;;;;;28.08;17.70;;;;;;;-1.67;100.00;102984.19;834227;23;875;-57
2022/01/14 00:44:30;;;;;;;27.67;17.83;;;;;;;-1.72;100.00;102987.25;836988;23;887;-51
2022/01/14 00:44:52;;;;;;;27.33;17.90;;;;;;;-1.75;100.00;102989.53;839645;23;781;-52
2022/01/14 00:45:13;;;;;;;27.23;17.73;;;;;;;-1.79;100.00;102992.63;838829;23;942;-52
2022/01/14 00:45:34;;;;;;;26.67;17.60;;;;;;;-1.80;100.00;102984.81;836511;23;4218;-54
2022/01/14 00:45:55;;;;;;;25.90;17.20;;;;;;;-1.81;100.00;102986.50;839637;23;887;-53
2022/01/14 00:46:16;;;;;;;26.60;17.33;;;;;;;-1.83;100.00;102984.56;835746;23;951;-54
2022/01/14 00:46:41;;;;;;;29.17;18.47;;;;;;;-1.88;100.00;102991.88;834917;23;895;-53
2022/01/14 00:47:02;;;;;;;29.52;19.08;;;;;;;-1.93;100.00;102988.91;837933;23;1014;-51
2022/01/14 00:47:23;;;;;;;28.40;18.52;;;;;;;-1.93;100.00;102988.03;838482;23;927;-50
2022/01/14 00:47:44;;;;;;;28.98;18.35;;;;;;;-1.91;100.00;102991.59;840046;23;737;-53
2022/01/14 00:48:04;;;;;;;28.95;18.50;;;;;;;-1.93;100.00;102983.78;840936;23;919;-51
2022/01/14 00:48:25;;;;;;;29.63;18.97;;;;;;;-1.93;100.00;102988.03;841968;23;4189;-55
2022/01/14 00:48:45;;;;;;;29.67;18.80;;;;;;;-1.94;100.00;102989.72;842851;23;926;-50
2022/01/14 00:49:06;;;;;;;30.53;19.23;;;;;;;-1.95;100.00;102985.34;839316;23;856;-52
2022/01/14 00:49:26;;;;;;;30.80;19.23;;;;;;;-1.92;100.00;102992.41;839103;23;916;-52
2022/01/14 00:49:47;;;;;;;28.75;18.60;;;;;;;-1.90;100.00;102988.28;834902;23;924;-55
2022/01/14 00:50:10;;;;;;;30.17;17.97;;;;;;;-1.84;100.00;102990.44;835144;23;950;-54
2022/01/14 00:50:33;;;;;;;29.77;18.48;;;;;;;-1.75;100.00;102992.09;835824;23;867;-52
2022/01/14 00:50:53;;;;;;;29.02;18.15;;;;;;;-1.75;100.00;102986.97;835106;23;868;-51
2022/01/14 00:51:14;;;;;;;28.37;18.00;;;;;;;-1.75;100.00;102988.66;833822;23;1546;-52
2022/01/14 00:51:35;;;;;;;26.63;18.10;;;;;;;-1.74;100.00;102991.34;833078;23;4257;-53
2022/01/14 00:51:56;;;;;;;26.23;17.85;;;;;;;-1.69;100.00;102988.28;835600;23;995;-53
2022/01/14 00:52:16;;;;;;;26.45;17.55;;;;;;;-1.63;100.00;102984.53;834851;23;908;-51
2022/01/14 00:52:39;;;;;;;26.77;17.50;;;;;;;-1.58;100.00;102987.47;834704;23;838;-52
2022/01/14 00:53:00;;;;;;;26.95;17.40;;;;;;;-1.55;100.00;102987.75;836512;23;1938;-53
2022/01/14 00:53:21;;;;;;;28.77;17.75;;;;;;;-1.45;100.00;102985.16;839351;23;955;-54
2022/01/14 00:53:41;;;;;;;28.30;18.03;;;;;;;-1.39;100.00;102985.63;839218;23;734;-52
2022/01/14 00:54:03;;;;;;;26.67;17.30;;;;;;;-1.34;100.00;102988.59;839939;23;912;-54
2022/01/14 00:54:25;;;;;;;25.60;16.38;;;;;;;-1.26;100.00;102981.50;838624;23;4344;-51
2022/01/14 00:54:46;;;;;;;25.75;15.88;;;;;;;-1.21;100.00;102981.09;839672;23;944;-54
2022/01/14 00:55:09;;;;;;;26.53;16.53;;;;;;;-1.24;100.00;102974.84;839848;23;935;-51
2022/01/14 00:55:46;;;;;;;26.75;16.20;;;;;;;-1.34;100.00;102986.03;838794;23;967;-51
2022/01/14 00:56:20;;;;;;;24.75;16.85;;;;;;;-1.43;100.00;102986.16;835634;23;910;-50
2022/01/14 00:57:14;;;;;;;24.17;15.90;;;;;;;-1.41;100.00;102987.19;831495;23;916;-52
2022/01/14 00:59:33;;;;;;;24.92;16.42;;;;;;;-1.31;100.00;102995.66;838430;23;1052;-52
2022/01/14 00:59:53;;;;;;;25.60;16.38;;;;;;;-1.34;100.00;102992.81;838341;23;1162;-52
2022/01/14 01:00:19;;;;;;;25.30;16.40;;;;;;;-1.40;100.00;102993.22;839569;23;799;-51
2022/01/14 01:00:40;;;;;;;25.85;17.45;;;;;;;-1.44;100.00;102997.22;837205;23;4654;-53
2022/01/14 01:01:00;;;;;;;25.65;16.85;;;;;;;-1.49;100.00;102990.81;839571;23;963;-53
2022/01/14 01:01:20;;;;;;;26.90;16.90;;;;;;;-1.52;100.00;102990.56;838989;23;793;-52
2022/01/14 01:01:44;;;;;;;27.53;17.57;;;;;;;-1.56;100.00;102991.09;839368;23;935;-51
2022/01/14 01:02:04;;;;;;;26.75;17.45;;;;;;;-1.61;100.00;102997.50;839395;23;820;-52
2022/01/14 01:02:24;;;;;;;27.13;17.87;;;;;;;-1.67;100.00;102992.75;839631;23;923;-52
2022/01/14 01:02:45;;;;;;;26.53;17.70;;;;;;;-1.68;100.00;102996.09;835330;23;1130;-51
2022/01/14 01:03:05;;;;;;;27.10;17.33;;;;;;;-1.68;100.00;102995.19;835197;23;920;-56
2022/01/14 01:03:27;;;;;;;28.77;18.13;;;;;;;-1.69;100.00;102995.97;834220;23;4465;-52
2022/01/14 01:03:48;;;;;;;27.48;17.52;;;;;;;-1.74;100.00;102999.03;835125;23;821;-50
2022/01/14 01:04:10;;;;;;;29.13;17.98;;;;;;;-1.74;100.00;102995.59;835567;23;876;-51
2022/01/14 01:04:36;;;;;;;27.60;18.33;;;;;;;-1.75;100.00;102996.34;835173;23;908;-54
2022/01/14 01:04:56;;;;;;;28.98;18.67;;;;;;;-1.77;100.00;102991.09;835702;23;960;-51
2022/01/14 01:05:18;;;;;;;29.53;18.77;;;;;;;-1.77;100.00;102995.34;835478;23;781;-50
2022/01/14 01:05:39;;;;;;;27.48;17.98;;;;;;;-1.78;100.00;102994.44;835063;23;938;-54
2022/01/14 01:05:59;;;;;;;27.85;17.92;;;;;;;-1.79;100.00;102990.06;837479;23;872;-52
2022/01/14 01:06:20;;;;;;;28.67;18.30;;;;;;;-1.82;100.00;102997.50;838284;23;4280;-51
2022/01/14 01:06:41;;;;;;;30.73;19.13;;;;;;;-1.85;100.00;102989.56;835438;23;1269;-50
2022/01/14 01:07:04;;;;;;;30.13;19.00;;;;;;;-1.84;100.00;102990.44;835570;23;899;-55
2022/01/14 01:07:25;;;;;;;30.05;18.77;;;;;;;-1.86;100.00;102985.19;834990;23;931;-52
2022/01/14 01:07:54;;;;;;;28.37;18.57;;;;;;;-1.84;100.00;102986.25;835132;23;1110;-52
2022/01/14 01:08:20;;;;;;;26.40;17.67;;;;;;;-1.78;100.00;102989.31;835747;23;1772;-54
2022/01/14 01:08:42;;;;;;;27.10;17.70;;;;;;;-1.76;100.00;102982.66;839079;23;853;-53
2022/01/14 01:09:09;;;;;;;29.27;17.85;;;;;;;-1.76;100.00;102977.50;840363;23;816;-51
2022/01/14 01:09:31;;;;;;;27.50;17.90;;;;;;;-1.75;100.00;102984.41;838537;23;4222;-51
2022/01/14 01:09:51;;;;;;;27.45;18.00;;;;;;;-1.77;100.00;102980.84;839984;23;931;-54
2022/01/14 01:10:12;;;;;;;29.37;18.73;;;;;;;-1.77;100.00;102978.28;838805;23;784;-52
2022/01/14 01:10:34;;;;;;;29.20;18.55;;;;;;;-1.77;100.00;102973.16;839471;23;978;-51
2022/01/14 01:10:54;;;;;;;29.30;18.17;;;;;;;-1.73;100.00;102975.19;839601;23;919;-55
2022/01/14 01:11:17;;;;;;;28.02;18.00;;;;;;;-1.75;100.00;102974.16;839540;23;986;-53
2022/01/14 01:11:44;;;;;;;28.65;18.50;;;;;;;-1.80;100.00;102980.59;838929;23;863;-53
2022/01/14 01:12:39;;;;;;;29.73;18.60;;;;;;;-1.84;100.00;102975.97;837598;23;4326;-53
2022/01/14 01:13:20;;;;;;;30.70;19.05;;;;;;;-1.89;100.00;102975.59;839545;23;1942;-53
2022/01/14 01:13:48;;;;;;;28.50;18.42;;;;;;;-1.78;100.00;102978.16;839842;23;864;-53
2022/01/14 01:14:16;;;;;;;26.95;17.98;;;;;;;-1.73;100.00;102971.72;838930;23;915;-58
2022/01/14 01:14:45;;;;;;;27.95;18.90;;;;;;;-1.79;100.00;102979.81;839561;23;792;-56
2022/01/14 01:15:08;;;;;;;30.55;19.17;;;;;;;-1.78;100.00;102980.72;839333;23;946;-50
2022/01/14 01:15:29;;;;;;;30.50;19.20;;;;;;;-1.76;100.00;102986.84;837586;23;4289;-52
2022/01/14 01:15:50;;;;;;;29.03;18.20;;;;;;;-1.76;100.00;102984.28;839703;23;1055;-51
2022/01/14 01:16:10;;;;;;;27.83;18.48;;;;;;;-1.73;100.00;102982.91;839447;23;820;-52
2022/01/14 01:16:30;;;;;;;27.98;18.20;;;;;;;-1.68;100.00;102982.38;838593;23;915;-52
2022/01/14 01:16:51;;;;;;;30.63;18.63;;;;;;;-1.66;100.00;102979.16;839476;23;934;-51
2022/01/14 01:17:12;;;;;;;29.60;18.67;;;;;;;-1.64;100.00;102977.63;839947;23;777;-54
2022/01/14 01:17:33;;;;;;;28.48;17.92;;;;;;;-1.63;100.00;102981.97;839545;23;823;-52
2022/01/14 01:17:54;;;;;;;29.23;18.42;;;;;;;-1.63;100.00;102983.66;839727;23;852;-53
2022/01/14 01:18:14;;;;;;;29.20;18.63;;;;;;;-1.61;100.00;102976.97;839336;23;865;-50
2022/01/14 01:18:34;;;;;;;26.83;17.57;;;;;;;-1.59;100.00;102976.34;833011;23;4480;-52
2022/01/14 01:18:55;;;;;;;28.23;17.83;;;;;;;-1.55;100.00;102982.63;836116;23;781;-53
2022/01/14 01:19:15;;;;;;;28.57;18.40;;;;;;;-1.55;100.00;102978.38;831886;23;962;-52
2022/01/14 01:19:36;;;;;;;28.88;18.23;;;;;;;-1.60;100.00;102977.09;831543;23;872;-51
2022/01/14 01:19:56;;;;;;;28.80;18.13;;;;;;;-1.60;100.00;102978.78;831263;23;734;-50
2022/01/14 01:20:21;;;;;;;29.42;17.75;;;;;;;-1.53;100.00;102981.06;831249;23;924;-52
2022/01/14 01:20:42;;;;;;;29.08;17.58;;;;;;;-1.49;100.00;102974.53;835204;23;721;-52
2022/01/14 01:21:02;;;;;;;27.27;17.47;;;;;;;-1.48;100.00;102977.22;836446;23;832;-51
2022/01/14 01:21:23;;;;;;;25.52;17.35;;;;;;;-1.49;100.00;102972.84;838527;23;4299;-51
2022/01/14 01:21:43;;;;;;;27.90;17.90;;;;;;;-1.53;100.00;102970.81;840166;23;907;-52
2022/01/14 01:22:04;;;;;;;26.53;17.57;;;;;;;-1.56;100.00;102976.56;839351;23;753;-60
2022/01/14 01:22:36;;;;;;;27.23;17.45;;;;;;;-1.59;100.00;102968.63;837278;23;1353;-52
2022/01/14 01:23:04;;;;;;;26.70;17.52;;;;;;;-1.55;100.00;102972.34;833860;23;1540;-51
2022/01/14 01:23:39;;;;;;;27.70;17.20;;;;;;;-1.53;100.00;102975.94;829762;23;1543;-53
2022/01/14 01:24:04;;;;;;;25.95;17.27;;;;;;;-1.51;100.00;102973.50;834180;23;1548;-51
2022/01/14 01:24:24;;;;;;;25.75;17.20;;;;;;;-1.48;100.00;102973.72;834335;23;4336;-52
2022/01/14 01:24:44;;;;;;;25.00;16.90;;;;;;;-1.47;100.00;102970.41;835105;23;856;-51
2022/01/14 01:25:06;;;;;;;27.27;16.77;;;;;;;-1.43;100.00;102969.88;839809;23;780;-54
2022/01/14 01:25:35;;;;;;;27.00;16.83;;;;;;;-1.37;100.00;102973.84;840202;23;1449;-52
2022/01/14 01:26:04;;;;;;;24.35;16.08;;;;;;;-1.25;100.00;102970.47;841558;23;689;-54
2022/01/14 01:26:35;;;;;;;23.77;16.00;;;;;;;-1.16;100.00;102973.78;839734;23;939;-51
2022/01/14 01:26:56;;;;;;;26.60;17.05;;;;;;;-1.26;100.00;102966.09;839366;23;884;-53
2022/01/14 01:27:19;;;;;;;24.60;16.40;;;;;;;-1.29;100.00;102971.00;840240;23;803;-54
2022/01/14 01:27:42;;;;;;;23.73;16.08;;;;;;;-1.33;100.00;102968.94;837385;23;4799;-51
2022/01/14 01:28:03;;;;;;;24.80;16.65;;;;;;;-1.37;100.00;102968.72;839519;23;851;-51
2022/01/14 01:28:25;;;;;;;27.20;17.13;;;;;;;-1.41;100.00;102966.66;839404;23;919;-55
2022/01/14 01:29:28;;;;;;;27.55;16.98;;;;;;;-1.46;100.00;102974.78;839406;23;727;-53
2022/01/14 01:29:52;;;;;;;27.56;16.88;;;;;;;-1.55;100.00;102977.50;839482;23;1578;-51
2022/01/14 01:30:47;;;;;;;27.55;17.65;;;;;;;-1.62;100.00;102976.09;839748;23;900;-50
2022/01/14 01:31:35;;;;;;;26.13;17.42;;;;;;;-1.65;100.00;102974.94;835221;23;5515;-51
2022/01/14 01:31:42;;;;;;;27.27;17.10;;;;;;;-1.68;100.00;102970.44;839496;23;1671;-51
2022/01/14 01:32:05;;;;;;;27.67;16.88;;;;;;;-1.71;100.00;102968.50;838120;23;904;-52
2022/01/14 01:32:25;;;;;;;27.02;17.38;;;;;;;-1.67;100.00;102966.22;839318;23;1145;-51
2022/01/14 01:32:47;;;;;;;25.13;17.00;;;;;;;-1.63;100.00;102968.28;838587;23;907;-51
2022/01/14 01:33:08;;;;;;;26.00;17.38;;;;;;;-1.63;100.00;102969.16;839117;23;1905;-51
2022/01/14 01:33:28;;;;;;;25.80;16.87;;;;;;;-1.63;100.00;102968.28;838382;23;4189;-55
2022/01/14 01:33:48;;;;;;;25.52;16.85;;;;;;;-1.64;100.00;102966.47;839093;23;884;-50
2022/01/14 01:34:13;;;;;;;27.97;17.63;;;;;;;-1.65;100.00;102968.13;839853;23;907;-52
2022/01/14 01:34:35;;;;;;;28.80;17.92;;;;;;;-1.66;100.00;102966.34;834147;23;865;-51
2022/01/14 01:34:55;;;;;;;27.50;17.40;;;;;;;-1.67;100.00;102969.69;835154;23;998;-52
2022/01/14 01:35:16;;;;;;;28.27;17.83;;;;;;;-1.69;100.00;102967.75;835180;23;787;-52
2022/01/14 01:35:36;;;;;;;26.90;17.83;;;;;;;-1.70;100.00;102966.88;835183;23;888;-53
2022/01/14 01:35:57;;;;;;;26.67;17.42;;;;;;;-1.74;100.00;102965.69;834437;23;816;-51
2022/01/14 01:36:17;;;;;;;26.17;16.90;;;;;;;-1.72;100.00;102969.31;836573;23;819;-50
2022/01/14 01:36:39;;;;;;;24.67;16.88;;;;;;;-1.70;100.00;102966.88;837410;23;4314;-54
2022/01/14 01:37:01;;;;;;;25.60;16.60;;;;;;;-1.63;100.00;102963.13;839599;23;942;-53
2022/01/14 01:37:22;;;;;;;25.30;16.75;;;;;;;-1.59;100.00;102968.63;838009;23;840;-51
2022/01/14 01:37:42;;;;;;;27.23;17.07;;;;;;;-1.55;100.00;102967.22;839578;23;852;-53
2022/01/14 01:38:02;;;;;;;26.70;16.85;;;;;;;-1.51;100.00;102965.78;839693;23;884;-55
2022/01/14 01:38:23;;;;;;;26.63;17.37;;;;;;;-1.50;100.00;102971.03;839469;23;785;-53
2022/01/14 01:38:43;;;;;;;25.38;16.77;;;;;;;-1.49;100.00;102967.72;839823;23;816;-52
2022/01/14 01:39:15;;;;;;;24.35;16.52;;;;;;;-1.46;100.00;102973.09;839772;23;887;-50
2022/01/14 01:39:35;;;;;;;23.92;16.05;;;;;;;-1.45;100.00;102967.19;838118;23;4252;-51
2022/01/14 01:39:56;;;;;;;24.55;16.10;;;;;;;-1.44;100.00;102965.50;838402;23;868;-53
2022/01/14 01:40:19;;;;;;;24.93;15.93;;;;;;;-1.46;100.00;102969.63;839802;23;836;-51
2022/01/14 01:40:39;;;;;;;25.00;16.48;;;;;;;-1.52;100.00;102972.59;838896;23;831;-51
2022/01/14 01:41:00;;;;;;;26.30;16.53;;;;;;;-1.56;100.00;102975.69;839942;23;825;-53
2022/01/14 01:41:21;;;;;;;24.73;16.63;;;;;;;-1.60;100.00;102968.50;839167;23;899;-53
2022/01/14 01:41:47;;;;;;;26.40;17.17;;;;;;;-1.64;100.00;102964.78;839204;23;840;-53
2022/01/14 01:42:10;;;;;;;26.30;16.95;;;;;;;-1.67;100.00;102966.22;838124;23;943;-51
2022/01/14 01:42:32;;;;;;;26.65;16.50;;;;;;;-1.68;100.00;102964.41;834002;23;4252;-53
2022/01/14 01:42:55;;;;;;;25.15;17.33;;;;;;;-1.73;100.00;102967.50;835757;23;920;-50
2022/01/14 01:43:17;;;;;;;24.33;16.90;;;;;;;-1.74;100.00;102964.81;835404;23;931;-51
2022/01/14 01:43:39;;;;;;;26.42;17.08;;;;;;;-1.77;100.00;102970.59;837342;23;1521;-50
2022/01/14 01:44:00;;;;;;;26.88;16.88;;;;;;;-1.81;100.00;102968.53;839266;23;949;-54
2022/01/14 01:44:23;;;;;;;26.02;16.90;;;;;;;-1.83;100.00;102979.44;841631;23;887;-52
2022/01/14 01:44:44;;;;;;;28.30;16.50;;;;;;;-1.84;100.00;102970.84;842359;23;875;-52
2022/01/14 01:45:09;;;;;;;25.80;16.73;;;;;;;-1.83;100.00;102972.63;843749;23;792;-54
2022/01/14 01:45:29;;;;;;;27.55;17.20;;;;;;;-1.84;100.00;102978.53;839342;23;4353;-51
2022/01/14 01:45:50;;;;;;;26.37;17.00;;;;;;;-1.79;100.00;102973.78;839258;23;836;-52
2022/01/14 01:46:10;;;;;;;24.27;16.00;;;;;;;-1.72;100.00;102966.75;839582;23;773;-51
2022/01/14 01:46:31;;;;;;;24.20;16.07;;;;;;;-1.73;100.00;102967.50;839044;23;880;-51
2022/01/14 01:46:53;;;;;;;26.27;16.80;;;;;;;-1.72;100.00;102974.44;840028;23;749;-55
2022/01/14 01:47:14;;;;;;;26.67;17.08;;;;;;;-1.71;100.00;102965.06;839860;23;828;-56
2022/01/14 01:47:34;;;;;;;26.10;16.42;;;;;;;-1.68;100.00;102967.88;839106;23;749;-52
2022/01/14 01:47:55;;;;;;;25.70;15.60;;;;;;;-1.66;100.00;102968.00;840119;23;885;-55
2022/01/14 01:48:15;;;;;;;25.27;16.05;;;;;;;-1.63;100.00;102964.03;836234;23;856;-52
2022/01/14 01:48:35;;;;;;;26.10;16.23;;;;;;;-1.59;100.00;102967.75;833486;23;4333;-51
2022/01/14 01:48:56;;;;;;;23.97;15.53;;;;;;;-1.59;100.00;102968.63;835216;23;895;-52
2022/01/14 01:49:19;;;;;;;25.10;15.53;;;;;;;-1.61;100.00;102965.03;835553;23;808;-51
2022/01/14 01:49:39;;;;;;;24.60;16.08;;;;;;;-1.65;100.00;102964.66;834857;23;912;-51
2022/01/14 01:50:09;;;;;;;23.93;15.90;;;;;;;-1.68;100.00;102964.41;836685;23;857;-51
2022/01/14 01:50:32;;;;;;;25.42;15.90;;;;;;;-1.71;100.00;102967.63;839343;23;656;-54
2022/01/14 01:50:52;;;;;;;25.13;15.60;;;;;;;-1.74;100.00;102970.84;840084;23;1655;-52
2022/01/14 01:51:13;;;;;;;25.53;16.07;;;;;;;-1.77;100.00;102970.59;835518;23;864;-54
2022/01/14 01:51:34;;;;;;;24.55;16.27;;;;;;;-1.77;100.00;102974.84;833621;23;4466;-50
2022/01/14 01:51:55;;;;;;;24.05;16.20;;;;;;;-1.79;100.00;102961.84;835893;23;856;-51
2022/01/14 01:52:16;;;;;;;24.30;15.77;;;;;;;-1.78;100.00;102967.91;835792;23;943;-52
2022/01/14 01:52:36;;;;;;;25.83;16.27;;;;;;;-1.81;100.00;102963.41;835059;23;591;-52
2022/01/14 01:52:57;;;;;;;26.88;16.63;;;;;;;-1.83;100.00;102979.44;830099;23;1909;-52
2022/01/14 01:53:17;;;;;;;26.33;16.30;;;;;;;-1.84;100.00;102967.38;830558;23;738;-51
2022/01/14 01:53:38;;;;;;;26.15;15.90;;;;;;;-1.84;100.00;102970.84;830482;23;764;-51
2022/01/14 01:53:58;;;;;;;25.55;15.88;;;;;;;-1.82;100.00;102963.28;831583;23;769;-54
2022/01/14 01:54:22;;;;;;;24.77;15.80;;;;;;;-1.72;100.00;102964.19;835381;23;899;-54
2022/01/14 01:54:43;;;;;;;23.20;15.50;;;;;;;-1.60;100.00;102969.41;834388;23;4805;-54
2022/01/14 01:55:05;;;;;;;23.77;14.95;;;;;;;-1.59;100.00;102966.06;839463;23;833;-52
2022/01/14 01:55:25;;;;;;;23.58;14.70;;;;;;;-1.54;100.00;102963.88;837911;23;1418;-51
2022/01/14 01:55:45;;;;;;;24.83;15.40;;;;;;;-1.40;100.00;102963.34;835454;23;839;-51
2022/01/14 01:56:06;;;;;;;23.55;14.98;;;;;;;-1.40;100.00;102958.22;835433;23;860;-54